sensor_id;sensor_type;location;lat;lon;timestamp;pressure;altitude;pressure_sealevel;temperature;humidity
15529;BME280;7866;52.280;9.500;2022-10-16T00:00:41;99873.66;;;13.58;88.03
15529;BME280;7866;52.280;9.500;2022-10-16T00:05:44;99865.97;;;13.54;87.82
15529;BME280;7866;52.280;9.500;2022-10-16T00:10:45;99864.78;;;13.64;87.72
15529;BME280;7866;52.280;9.500;2022-10-16T00:15:48;99867.72;;;13.69;87.02
15529;BME280;7866;52.280;9.500;2022-10-16T00:20:50;99859.59;;;13.62;87.17
15529;BME280;7866;52.280;9.500;2022-10-16T00:25:55;99868.81;;;13.94;86.19
15529;BME280;7866;52.280;9.500;2022-10-16T00:30:58;99874.44;;;14.06;85.45
15529;BME280;7866;52.280;9.500;2022-10-16T00:36:00;99881.31;;;14.22;85.05
15529;BME280;7866;52.280;9.500;2022-10-16T00:41:03;99873.06;;;14.43;83.43
15529;BME280;7866;52.280;9.500;2022-10-16T00:46:13;99879.31;;;14.50;83.42
15529;BME280;7866;52.280;9.500;2022-10-16T00:51:18;99883.69;;;14.58;83.43
15529;BME280;7866;52.280;9.500;2022-10-16T00:56:21;99883.47;;;14.66;83.41
15529;BME280;7866;52.280;9.500;2022-10-16T01:01:24;99873.09;;;14.70;83.37
15529;BME280;7866;52.280;9.500;2022-10-16T01:06:32;99884.72;;;14.77;82.78
15529;BME280;7866;52.280;9.500;2022-10-16T01:11:44;99865.84;;;14.77;83.33
15529;BME280;7866;52.280;9.500;2022-10-16T01:16:50;99870.41;;;14.70;83.60
15529;BME280;7866;52.280;9.500;2022-10-16T01:21:55;99880.78;;;14.73;84.09
15529;BME280;7866;52.280;9.500;2022-10-16T01:27:10;99882.66;;;14.72;83.81
15529;BME280;7866;52.280;9.500;2022-10-16T01:32:17;99893.00;;;14.75;84.04
15529;BME280;7866;52.280;9.500;2022-10-16T01:37:25;99891.97;;;14.70;84.35
15529;BME280;7866;52.280;9.500;2022-10-16T01:42:35;99910.38;;;14.46;84.90
15529;BME280;7866;52.280;9.500;2022-10-16T01:47:37;99906.03;;;14.45;85.53
15529;BME280;7866;52.280;9.500;2022-10-16T01:52:43;99913.53;;;14.57;85.78
15529;BME280;7866;52.280;9.500;2022-10-16T01:57:49;99915.97;;;14.45;85.32
15529;BME280;7866;52.280;9.500;2022-10-16T02:02:54;99928.34;;;14.26;86.19
15529;BME280;7866;52.280;9.500;2022-10-16T02:07:59;99929.97;;;14.14;86.88
15529;BME280;7866;52.280;9.500;2022-10-16T02:13:06;99927.25;;;14.00;87.40
15529;BME280;7866;52.280;9.500;2022-10-16T02:18:09;99927.78;;;13.83;88.46
15529;BME280;7866;52.280;9.500;2022-10-16T02:23:15;99939.59;;;13.82;89.03
15529;BME280;7866;52.280;9.500;2022-10-16T02:28:26;99940.59;;;13.74;89.60
15529;BME280;7866;52.280;9.500;2022-10-16T02:33:31;99932.72;;;13.72;89.65
15529;BME280;7866;52.280;9.500;2022-10-16T02:38:33;99919.69;;;13.76;89.56
15529;BME280;7866;52.280;9.500;2022-10-16T02:43:38;99925.34;;;13.94;89.53
15529;BME280;7866;52.280;9.500;2022-10-16T02:48:39;99921.44;;;13.97;89.11
15529;BME280;7866;52.280;9.500;2022-10-16T02:53:41;99917.50;;;13.93;88.81
15529;BME280;7866;52.280;9.500;2022-10-16T02:58:44;99920.44;;;14.11;88.41
15529;BME280;7866;52.280;9.500;2022-10-16T03:03:46;99919.72;;;13.83;88.33
15529;BME280;7866;52.280;9.500;2022-10-16T03:08:47;99925.88;;;13.70;89.10
15529;BME280;7866;52.280;9.500;2022-10-16T03:13:50;99937.78;;;13.54;89.55
15529;BME280;7866;52.280;9.500;2022-10-16T03:18:52;99943.34;;;13.46;90.20
15529;BME280;7866;52.280;9.500;2022-10-16T03:23:54;99931.97;;;13.50;90.42
15529;BME280;7866;52.280;9.500;2022-10-16T03:28:57;99915.78;;;13.44;90.93
15529;BME280;7866;52.280;9.500;2022-10-16T03:33:58;99920.94;;;13.39;91.34
15529;BME280;7866;52.280;9.500;2022-10-16T03:39:00;99938.78;;;13.46;91.44
15529;BME280;7866;52.280;9.500;2022-10-16T03:44:03;99940.16;;;13.36;91.53
15529;BME280;7866;52.280;9.500;2022-10-16T03:49:05;99937.19;;;13.24;91.72
15529;BME280;7866;52.280;9.500;2022-10-16T03:54:06;99942.28;;;13.19;92.17
15529;BME280;7866;52.280;9.500;2022-10-16T03:59:09;99934.88;;;13.21;92.53
15529;BME280;7866;52.280;9.500;2022-10-16T04:04:11;99925.69;;;13.37;92.63
15529;BME280;7866;52.280;9.500;2022-10-16T04:09:13;99943.59;;;13.23;92.22
15529;BME280;7866;52.280;9.500;2022-10-16T04:14:16;99948.88;;;13.16;92.01
15529;BME280;7866;52.280;9.500;2022-10-16T04:19:18;99956.69;;;13.11;92.31
15529;BME280;7866;52.280;9.500;2022-10-16T04:24:20;99964.31;;;13.07;92.50
15529;BME280;7866;52.280;9.500;2022-10-16T04:29:23;99974.09;;;13.15;92.68
15529;BME280;7866;52.280;9.500;2022-10-16T04:34:25;99968.13;;;13.20;92.59
15529;BME280;7866;52.280;9.500;2022-10-16T04:39:27;99963.41;;;13.22;92.40
15529;BME280;7866;52.280;9.500;2022-10-16T04:44:30;99958.19;;;13.14;92.03
15529;BME280;7866;52.280;9.500;2022-10-16T04:49:31;99968.28;;;13.12;92.59
15529;BME280;7866;52.280;9.500;2022-10-16T04:54:33;99961.63;;;13.07;92.83
15529;BME280;7866;52.280;9.500;2022-10-16T04:59:36;99976.94;;;13.07;92.97
15529;BME280;7866;52.280;9.500;2022-10-16T05:04:37;99975.28;;;13.06;93.33
15529;BME280;7866;52.280;9.500;2022-10-16T05:09:39;99989.94;;;13.03;93.14
15529;BME280;7866;52.280;9.500;2022-10-16T05:14:42;99988.16;;;13.11;92.93
15529;BME280;7866;52.280;9.500;2022-10-16T05:19:44;100001.50;;;13.04;93.05
15529;BME280;7866;52.280;9.500;2022-10-16T05:24:45;100000.97;;;13.09;93.40
15529;BME280;7866;52.280;9.500;2022-10-16T05:29:49;100016.66;;;13.05;93.22
15529;BME280;7866;52.280;9.500;2022-10-16T05:34:50;99995.34;;;13.25;93.63
15529;BME280;7866;52.280;9.500;2022-10-16T05:39:52;100015.53;;;13.42;92.38
15529;BME280;7866;52.280;9.500;2022-10-16T05:44:55;100005.22;;;13.24;91.72
15529;BME280;7866;52.280;9.500;2022-10-16T05:49:57;100003.19;;;13.26;92.18
15529;BME280;7866;52.280;9.500;2022-10-16T05:54:58;100020.53;;;13.45;91.63
15529;BME280;7866;52.280;9.500;2022-10-16T06:00:02;100023.81;;;13.41;91.32
15529;BME280;7866;52.280;9.500;2022-10-16T06:05:05;100035.25;;;13.28;91.14
15529;BME280;7866;52.280;9.500;2022-10-16T06:10:07;100024.22;;;13.44;91.26
15529;BME280;7866;52.280;9.500;2022-10-16T06:15:11;100026.75;;;13.24;91.16
15529;BME280;7866;52.280;9.500;2022-10-16T06:20:12;100045.00;;;13.29;91.43
15529;BME280;7866;52.280;9.500;2022-10-16T06:25:14;100059.69;;;13.54;91.14
15529;BME280;7866;52.280;9.500;2022-10-16T06:30:17;100060.75;;;13.60;90.71
15529;BME280;7866;52.280;9.500;2022-10-16T06:35:19;100062.44;;;13.61;90.87
15529;BME280;7866;52.280;9.500;2022-10-16T06:40:20;100055.13;;;13.55;90.64
15529;BME280;7866;52.280;9.500;2022-10-16T06:45:23;100069.13;;;13.72;91.02
15529;BME280;7866;52.280;9.500;2022-10-16T06:50:25;100088.81;;;14.00;89.46
15529;BME280;7866;52.280;9.500;2022-10-16T06:55:26;100075.72;;;13.97;89.05
15529;BME280;7866;52.280;9.500;2022-10-16T07:00:30;100080.75;;;14.48;87.95
15529;BME280;7866;52.280;9.500;2022-10-16T07:05:31;100079.00;;;14.69;85.57
15529;BME280;7866;52.280;9.500;2022-10-16T07:10:33;100099.19;;;14.93;83.98
15529;BME280;7866;52.280;9.500;2022-10-16T07:15:36;100100.88;;;15.00;82.54
15529;BME280;7866;52.280;9.500;2022-10-16T07:20:38;100110.41;;;15.03;83.12
15529;BME280;7866;52.280;9.500;2022-10-16T07:25:40;100111.66;;;15.07;82.86
15529;BME280;7866;52.280;9.500;2022-10-16T07:30:43;100121.00;;;15.11;83.08
15529;BME280;7866;52.280;9.500;2022-10-16T07:35:49;100126.88;;;15.28;81.96
15529;BME280;7866;52.280;9.500;2022-10-16T07:40:56;100136.88;;;15.61;81.12
15529;BME280;7866;52.280;9.500;2022-10-16T07:45:59;100140.84;;;15.78;79.77
15529;BME280;7866;52.280;9.500;2022-10-16T07:51:02;100141.06;;;15.76;79.91
15529;BME280;7866;52.280;9.500;2022-10-16T07:56:05;100155.97;;;15.99;79.34
15529;BME280;7866;52.280;9.500;2022-10-16T08:01:11;100166.38;;;16.09;79.31
15529;BME280;7866;52.280;9.500;2022-10-16T08:06:14;100171.53;;;16.30;79.29
15529;BME280;7866;52.280;9.500;2022-10-16T08:11:15;100192.28;;;16.49;78.47
15529;BME280;7866;52.280;9.500;2022-10-16T08:16:19;100181.72;;;16.41;78.26
15529;BME280;7866;52.280;9.500;2022-10-16T08:21:22;100194.63;;;16.33;78.77
15529;BME280;7866;52.280;9.500;2022-10-16T08:26:24;100202.72;;;16.26;79.04
15529;BME280;7866;52.280;9.500;2022-10-16T08:31:28;100200.25;;;16.24;78.64
15529;BME280;7866;52.280;9.500;2022-10-16T08:36:29;100202.50;;;16.34;79.40
15529;BME280;7866;52.280;9.500;2022-10-16T08:41:55;100199.81;;;16.14;78.90
15529;BME280;7866;52.280;9.500;2022-10-16T08:47:11;100206.06;;;16.21;79.94
15529;BME280;7866;52.280;9.500;2022-10-16T08:52:14;100220.38;;;16.48;78.45
15529;BME280;7866;52.280;9.500;2022-10-16T08:57:18;100218.88;;;16.66;77.67
15529;BME280;7866;52.280;9.500;2022-10-16T09:02:28;100224.47;;;16.71;77.48
15529;BME280;7866;52.280;9.500;2022-10-16T09:07:38;100229.50;;;16.74;77.88
15529;BME280;7866;52.280;9.500;2022-10-16T09:12:52;100231.91;;;16.95;77.19
15529;BME280;7866;52.280;9.500;2022-10-16T09:18:01;100243.38;;;16.97;76.94
15529;BME280;7866;52.280;9.500;2022-10-16T09:23:17;100262.47;;;17.16;76.37
15529;BME280;7866;52.280;9.500;2022-10-16T09:28:19;100266.00;;;17.16;75.91
15529;BME280;7866;52.280;9.500;2022-10-16T09:33:25;100265.53;;;17.19;75.82
15529;BME280;7866;52.280;9.500;2022-10-16T09:38:31;100271.75;;;17.33;75.21
15529;BME280;7866;52.280;9.500;2022-10-16T09:43:36;100284.78;;;17.49;75.18
15529;BME280;7866;52.280;9.500;2022-10-16T09:48:47;100278.69;;;17.61;74.51
15529;BME280;7866;52.280;9.500;2022-10-16T09:53:54;100288.78;;;17.85;73.51
15529;BME280;7866;52.280;9.500;2022-10-16T09:58:58;100285.28;;;17.78;73.45
15529;BME280;7866;52.280;9.500;2022-10-16T10:04:02;100291.50;;;17.85;73.35
15529;BME280;7866;52.280;9.500;2022-10-16T10:09:06;100302.66;;;17.64;73.53
15529;BME280;7866;52.280;9.500;2022-10-16T10:14:27;100307.59;;;17.80;72.00
15529;BME280;7866;52.280;9.500;2022-10-16T10:19:38;100311.81;;;18.01;71.30
15529;BME280;7866;52.280;9.500;2022-10-16T10:24:40;100317.28;;;17.94;70.59
15529;BME280;7866;52.280;9.500;2022-10-16T10:29:47;100316.31;;;18.14;69.99
15529;BME280;7866;52.280;9.500;2022-10-16T10:36:25;100332.66;;;18.32;70.80
15529;BME280;7866;52.280;9.500;2022-10-16T10:47:13;100336.09;;;18.21;70.71
15529;BME280;7866;52.280;9.500;2022-10-16T10:52:31;100330.03;;;18.19;67.51
15529;BME280;7866;52.280;9.500;2022-10-16T10:57:42;100321.19;;;18.30;69.34
15529;BME280;7866;52.280;9.500;2022-10-16T11:02:53;100322.63;;;18.39;68.90
15529;BME280;7866;52.280;9.500;2022-10-16T11:08:04;100321.47;;;18.47;68.52
15529;BME280;7866;52.280;9.500;2022-10-16T11:13:17;100332.84;;;18.37;67.59
15529;BME280;7866;52.280;9.500;2022-10-16T11:18:24;100349.81;;;18.26;68.49
15529;BME280;7866;52.280;9.500;2022-10-16T11:23:31;100350.00;;;18.00;69.25
15529;BME280;7866;52.280;9.500;2022-10-16T11:28:40;100345.88;;;18.22;68.84
15529;BME280;7866;52.280;9.500;2022-10-16T11:33:45;100342.50;;;18.27;68.03
15529;BME280;7866;52.280;9.500;2022-10-16T11:38:55;100350.06;;;18.18;68.51
15529;BME280;7866;52.280;9.500;2022-10-16T11:44:13;100365.53;;;18.11;68.92
15529;BME280;7866;52.280;9.500;2022-10-16T11:49:18;100361.84;;;17.98;69.09
15529;BME280;7866;52.280;9.500;2022-10-16T11:54:28;100362.25;;;18.34;68.57
15529;BME280;7866;52.280;9.500;2022-10-16T11:59:37;100377.75;;;18.27;67.93
15529;BME280;7866;52.280;9.500;2022-10-16T12:04:45;100375.59;;;18.04;68.20
15529;BME280;7866;52.280;9.500;2022-10-16T12:09:51;100381.06;;;18.29;67.77
15529;BME280;7866;52.280;9.500;2022-10-16T12:15:00;100378.13;;;18.62;66.45
15529;BME280;7866;52.280;9.500;2022-10-16T12:20:21;100377.66;;;18.97;65.52
15529;BME280;7866;52.280;9.500;2022-10-16T12:25:27;100384.53;;;18.99;64.90
15529;BME280;7866;52.280;9.500;2022-10-16T12:30:31;100384.16;;;18.64;66.48
15529;BME280;7866;52.280;9.500;2022-10-16T12:35:35;100388.44;;;18.15;68.15
15529;BME280;7866;52.280;9.500;2022-10-16T12:40:47;100389.59;;;18.01;68.70
15529;BME280;7866;52.280;9.500;2022-10-16T12:46:01;100388.56;;;18.33;67.12
15529;BME280;7866;52.280;9.500;2022-10-16T12:51:11;100399.91;;;18.17;67.78
15529;BME280;7866;52.280;9.500;2022-10-16T12:56:18;100410.34;;;18.20;67.64
15529;BME280;7866;52.280;9.500;2022-10-16T13:01:39;100416.69;;;18.70;65.37
15529;BME280;7866;52.280;9.500;2022-10-16T13:06:49;100405.56;;;19.04;65.70
15529;BME280;7866;52.280;9.500;2022-10-16T13:12:05;100409.06;;;19.29;63.45
15529;BME280;7866;52.280;9.500;2022-10-16T13:17:13;100416.03;;;19.43;63.56
15529;BME280;7866;52.280;9.500;2022-10-16T13:22:24;100434.56;;;19.47;63.16
15529;BME280;7866;52.280;9.500;2022-10-16T13:27:37;100446.00;;;19.12;63.15
15529;BME280;7866;52.280;9.500;2022-10-16T13:32:45;100445.97;;;19.37;64.18
15529;BME280;7866;52.280;9.500;2022-10-16T13:37:47;100448.91;;;19.35;64.44
15529;BME280;7866;52.280;9.500;2022-10-16T13:42:52;100450.19;;;19.33;63.66
15529;BME280;7866;52.280;9.500;2022-10-16T13:48:02;100440.09;;;19.58;62.86
15529;BME280;7866;52.280;9.500;2022-10-16T13:53:05;100447.41;;;19.58;63.30
15529;BME280;7866;52.280;9.500;2022-10-16T13:58:12;100469.88;;;19.72;63.78
15529;BME280;7866;52.280;9.500;2022-10-16T14:03:15;100457.03;;;19.79;63.33
15529;BME280;7866;52.280;9.500;2022-10-16T14:08:17;100472.75;;;19.77;62.46
15529;BME280;7866;52.280;9.500;2022-10-16T14:13:29;100467.69;;;19.80;63.33
15529;BME280;7866;52.280;9.500;2022-10-16T14:18:33;100482.16;;;19.31;63.78
15529;BME280;7866;52.280;9.500;2022-10-16T14:23:36;100480.59;;;18.60;66.83
15529;BME280;7866;52.280;9.500;2022-10-16T14:28:40;100479.28;;;18.76;66.95
15529;BME280;7866;52.280;9.500;2022-10-16T14:33:42;100480.25;;;18.05;69.59
15529;BME280;7866;52.280;9.500;2022-10-16T14:38:49;100492.00;;;17.59;71.83
15529;BME280;7866;52.280;9.500;2022-10-16T14:43:55;100494.13;;;17.57;71.76
15529;BME280;7866;52.280;9.500;2022-10-16T14:49:01;100498.72;;;17.36;73.47
15529;BME280;7866;52.280;9.500;2022-10-16T14:54:04;100503.53;;;17.21;74.12
15529;BME280;7866;52.280;9.500;2022-10-16T14:59:12;100488.94;;;17.02;74.50
15529;BME280;7866;52.280;9.500;2022-10-16T15:04:16;100496.66;;;16.92;74.77
15529;BME280;7866;52.280;9.500;2022-10-16T15:09:18;100509.06;;;16.60;75.62
15529;BME280;7866;52.280;9.500;2022-10-16T15:14:21;100514.41;;;16.40;76.70
15529;BME280;7866;52.280;9.500;2022-10-16T15:19:23;100511.84;;;16.32;77.25
15529;BME280;7866;52.280;9.500;2022-10-16T15:24:25;100514.13;;;16.21;77.37
15529;BME280;7866;52.280;9.500;2022-10-16T15:29:28;100518.88;;;16.13;78.03
15529;BME280;7866;52.280;9.500;2022-10-16T15:34:29;100515.03;;;15.94;78.54
15529;BME280;7866;52.280;9.500;2022-10-16T15:39:31;100527.00;;;15.78;78.89
15529;BME280;7866;52.280;9.500;2022-10-16T15:44:34;100530.22;;;15.67;79.07
15529;BME280;7866;52.280;9.500;2022-10-16T15:49:36;100534.72;;;15.60;79.19
15529;BME280;7866;52.280;9.500;2022-10-16T15:54:37;100528.50;;;15.59;79.35
15529;BME280;7866;52.280;9.500;2022-10-16T15:59:40;100537.03;;;15.63;79.33
15529;BME280;7866;52.280;9.500;2022-10-16T16:04:42;100545.50;;;15.60;78.98
15529;BME280;7866;52.280;9.500;2022-10-16T16:09:44;100555.84;;;15.49;79.46
15529;BME280;7866;52.280;9.500;2022-10-16T16:14:47;100557.28;;;15.24;80.37
15529;BME280;7866;52.280;9.500;2022-10-16T16:19:49;100554.22;;;15.06;80.49
15529;BME280;7866;52.280;9.500;2022-10-16T16:24:51;100562.44;;;14.97;80.83
15529;BME280;7866;52.280;9.500;2022-10-16T16:29:54;100547.59;;;14.87;81.16
15529;BME280;7866;52.280;9.500;2022-10-16T16:34:55;100553.44;;;14.69;81.52
15529;BME280;7866;52.280;9.500;2022-10-16T16:39:57;100556.25;;;14.61;82.04
15529;BME280;7866;52.280;9.500;2022-10-16T16:45:01;100585.59;;;14.56;81.67
15529;BME280;7866;52.280;9.500;2022-10-16T16:50:02;100585.06;;;14.45;81.40
15529;BME280;7866;52.280;9.500;2022-10-16T16:55:05;100594.81;;;14.46;81.97
15529;BME280;7866;52.280;9.500;2022-10-16T17:00:09;100593.53;;;14.57;82.16
15529;BME280;7866;52.280;9.500;2022-10-16T17:05:11;100581.59;;;14.66;81.88
15529;BME280;7866;52.280;9.500;2022-10-16T17:10:13;100585.38;;;14.72;81.69
15529;BME280;7866;52.280;9.500;2022-10-16T17:15:16;100609.53;;;14.80;81.35
15529;BME280;7866;52.280;9.500;2022-10-16T17:20:18;100602.09;;;14.82;81.21
15529;BME280;7866;52.280;9.500;2022-10-16T17:25:19;100620.53;;;14.78;81.53
15529;BME280;7866;52.280;9.500;2022-10-16T17:30:24;100627.13;;;14.76;82.21
15529;BME280;7866;52.280;9.500;2022-10-16T17:35:26;100623.59;;;14.75;82.03
15529;BME280;7866;52.280;9.500;2022-10-16T17:40:27;100610.44;;;14.87;81.83
15529;BME280;7866;52.280;9.500;2022-10-16T17:45:31;100618.28;;;14.82;81.87
15529;BME280;7866;52.280;9.500;2022-10-16T17:50:32;100628.59;;;14.78;82.19
15529;BME280;7866;52.280;9.500;2022-10-16T17:55:37;100634.00;;;14.78;82.54
15529;BME280;7866;52.280;9.500;2022-10-16T18:00:40;100641.88;;;14.80;82.46
15529;BME280;7866;52.280;9.500;2022-10-16T18:05:41;100654.75;;;14.78;82.28
15529;BME280;7866;52.280;9.500;2022-10-16T18:10:46;100652.97;;;14.70;82.72
15529;BME280;7866;52.280;9.500;2022-10-16T18:15:59;100659.31;;;14.63;83.17
15529;BME280;7866;52.280;9.500;2022-10-16T18:21:04;100660.88;;;14.72;82.87
15529;BME280;7866;52.280;9.500;2022-10-16T18:26:06;100654.66;;;14.71;82.71
15529;BME280;7866;52.280;9.500;2022-10-16T18:31:13;100647.59;;;14.70;82.70
15529;BME280;7866;52.280;9.500;2022-10-16T18:36:17;100669.81;;;14.58;83.09
15529;BME280;7866;52.280;9.500;2022-10-16T18:41:18;100671.22;;;14.53;83.77
15529;BME280;7866;52.280;9.500;2022-10-16T18:46:23;100676.31;;;14.48;83.53
15529;BME280;7866;52.280;9.500;2022-10-16T18:51:26;100690.88;;;14.39;84.06
15529;BME280;7866;52.280;9.500;2022-10-16T18:56:30;100699.16;;;14.38;84.43
15529;BME280;7866;52.280;9.500;2022-10-16T19:01:35;100703.06;;;14.35;84.51
15529;BME280;7866;52.280;9.500;2022-10-16T19:06:39;100703.06;;;14.35;84.79
15529;BME280;7866;52.280;9.500;2022-10-16T19:11:42;100696.63;;;14.36;84.56
15529;BME280;7866;52.280;9.500;2022-10-16T19:16:45;100685.22;;;14.34;84.77
15529;BME280;7866;52.280;9.500;2022-10-16T19:21:48;100689.41;;;14.22;85.16
15529;BME280;7866;52.280;9.500;2022-10-16T19:26:55;100685.41;;;14.18;85.19
15529;BME280;7866;52.280;9.500;2022-10-16T19:31:59;100680.22;;;14.16;85.35
15529;BME280;7866;52.280;9.500;2022-10-16T19:37:02;100691.44;;;14.05;85.44
15529;BME280;7866;52.280;9.500;2022-10-16T19:42:03;100691.59;;;14.03;85.48
15529;BME280;7866;52.280;9.500;2022-10-16T19:47:06;100700.69;;;14.02;85.14
15529;BME280;7866;52.280;9.500;2022-10-16T19:52:08;100694.94;;;14.05;85.44
15529;BME280;7866;52.280;9.500;2022-10-16T19:57:10;100690.94;;;14.01;85.23
15529;BME280;7866;52.280;9.500;2022-10-16T20:02:13;100692.97;;;13.99;85.49
15529;BME280;7866;52.280;9.500;2022-10-16T20:07:15;100692.25;;;14.05;85.31
15529;BME280;7866;52.280;9.500;2022-10-16T20:12:16;100699.31;;;14.07;85.37
15529;BME280;7866;52.280;9.500;2022-10-16T20:17:19;100708.50;;;14.12;85.08
15529;BME280;7866;52.280;9.500;2022-10-16T20:22:21;100707.97;;;14.17;85.25
15529;BME280;7866;52.280;9.500;2022-10-16T20:27:23;100712.25;;;14.26;84.66
15529;BME280;7866;52.280;9.500;2022-10-16T20:32:29;100717.44;;;14.27;84.69
15529;BME280;7866;52.280;9.500;2022-10-16T20:37:31;100720.34;;;14.26;84.58
15529;BME280;7866;52.280;9.500;2022-10-16T20:42:32;100735.81;;;14.24;84.90
15529;BME280;7866;52.280;9.500;2022-10-16T20:47:35;100733.81;;;14.26;85.10
15529;BME280;7866;52.280;9.500;2022-10-16T20:52:37;100739.19;;;14.26;85.24
15529;BME280;7866;52.280;9.500;2022-10-16T20:57:39;100726.00;;;14.31;85.54
15529;BME280;7866;52.280;9.500;2022-10-16T21:02:42;100734.09;;;14.31;85.59
15529;BME280;7866;52.280;9.500;2022-10-16T21:07:44;100739.47;;;14.31;85.71
15529;BME280;7866;52.280;9.500;2022-10-16T21:12:46;100727.31;;;14.35;85.41
15529;BME280;7866;52.280;9.500;2022-10-16T21:17:49;100736.63;;;14.33;85.71
15529;BME280;7866;52.280;9.500;2022-10-16T21:22:50;100756.00;;;14.28;86.18
15529;BME280;7866;52.280;9.500;2022-10-16T21:27:52;100757.84;;;14.27;86.59
15529;BME280;7866;52.280;9.500;2022-10-16T21:32:55;100756.94;;;14.35;86.80
15529;BME280;7866;52.280;9.500;2022-10-16T21:37:56;100760.31;;;14.37;86.93
15529;BME280;7866;52.280;9.500;2022-10-16T21:42:59;100760.94;;;14.39;86.89
15529;BME280;7866;52.280;9.500;2022-10-16T21:48:05;100754.91;;;14.37;86.97
15529;BME280;7866;52.280;9.500;2022-10-16T21:53:07;100764.00;;;14.36;87.14
15529;BME280;7866;52.280;9.500;2022-10-16T21:58:08;100754.91;;;14.37;87.46
15529;BME280;7866;52.280;9.500;2022-10-16T22:03:11;100721.56;;;14.38;87.70
15529;BME280;7866;52.280;9.500;2022-10-16T22:08:13;100721.28;;;14.33;88.00
15529;BME280;7866;52.280;9.500;2022-10-16T22:13:15;100727.31;;;14.35;88.60
15529;BME280;7866;52.280;9.500;2022-10-16T22:18:18;100730.47;;;14.39;88.64
15529;BME280;7866;52.280;9.500;2022-10-16T22:23:20;100732.34;;;14.38;88.83
15529;BME280;7866;52.280;9.500;2022-10-16T22:28:22;100744.13;;;14.37;89.22
15529;BME280;7866;52.280;9.500;2022-10-16T22:33:25;100748.38;;;14.32;89.86
15529;BME280;7866;52.280;9.500;2022-10-16T22:38:27;100746.16;;;14.35;90.07
15529;BME280;7866;52.280;9.500;2022-10-16T22:43:29;100739.59;;;14.38;89.99
15529;BME280;7866;52.280;9.500;2022-10-16T22:48:33;100729.91;;;14.43;89.79
15529;BME280;7866;52.280;9.500;2022-10-16T22:53:35;100727.50;;;14.34;89.48
15529;BME280;7866;52.280;9.500;2022-10-16T22:58:36;100722.34;;;14.24;89.99
15529;BME280;7866;52.280;9.500;2022-10-16T23:03:39;100715.66;;;14.20;90.60
15529;BME280;7866;52.280;9.500;2022-10-16T23:08:41;100725.81;;;14.18;90.90
15529;BME280;7866;52.280;9.500;2022-10-16T23:13:42;100727.81;;;14.16;91.08
15529;BME280;7866;52.280;9.500;2022-10-16T23:18:47;100724.22;;;14.09;91.04
15529;BME280;7866;52.280;9.500;2022-10-16T23:23:50;100723.06;;;14.03;91.48
15529;BME280;7866;52.280;9.500;2022-10-16T23:28:54;100723.91;;;14.03;91.46
15529;BME280;7866;52.280;9.500;2022-10-16T23:33:57;100721.13;;;13.97;91.32
15529;BME280;7866;52.280;9.500;2022-10-16T23:38:59;100710.88;;;13.92;91.84
15529;BME280;7866;52.280;9.500;2022-10-16T23:44:01;100711.25;;;13.89;91.70
15529;BME280;7866;52.280;9.500;2022-10-16T23:49:04;100708.25;;;13.84;91.73
15529;BME280;7866;52.280;9.500;2022-10-16T23:54:06;100701.56;;;13.80;92.01
15529;BME280;7866;52.280;9.500;2022-10-16T23:59:07;100700.91;;;13.78;92.27
